sensor_id;sensor_type;location;lat;lon;timestamp;P1;durP1;ratioP1;P2;durP2;ratioP2
24157;SDS011;12316;50.904;4.200;2023-05-07T00:01:55;8.95;;;4.28;;
24157;SDS011;12316;50.904;4.200;2023-05-07T00:04:21;9.48;;;4.47;;
24157;SDS011;12316;50.904;4.200;2023-05-07T00:06:46;10.60;;;3.88;;
24157;SDS011;12316;50.904;4.200;2023-05-07T00:09:12;10.50;;;3.97;;
24157;SDS011;12316;50.904;4.200;2023-05-07T00:11:38;8.00;;;4.03;;
24157;SDS011;12316;50.904;4.200;2023-05-07T00:14:04;11.30;;;4.50;;
24157;SDS011;12316;50.904;4.200;2023-05-07T00:16:29;10.73;;;4.20;;
24157;SDS011;12316;50.904;4.200;2023-05-07T00:18:55;7.95;;;3.95;;
24157;SDS011;12316;50.904;4.200;2023-05-07T00:21:20;9.35;;;4.50;;
24157;SDS011;12316;50.904;4.200;2023-05-07T00:23:46;9.65;;;4.57;;
24157;SDS011;12316;50.904;4.200;2023-05-07T00:26:12;8.45;;;4.13;;
24157;SDS011;12316;50.904;4.200;2023-05-07T00:28:38;8.93;;;4.30;;
24157;SDS011;12316;50.904;4.200;2023-05-07T00:31:04;8.35;;;4.13;;
24157;SDS011;12316;50.904;4.200;2023-05-07T00:33:29;9.82;;;4.30;;
24157;SDS011;12316;50.904;4.200;2023-05-07T00:35:55;6.93;;;3.97;;
24157;SDS011;12316;50.904;4.200;2023-05-07T00:38:21;11.40;;;4.57;;
24157;SDS011;12316;50.904;4.200;2023-05-07T00:40:46;7.28;;;4.07;;
24157;SDS011;12316;50.904;4.200;2023-05-07T00:43:12;8.82;;;4.13;;
24157;SDS011;12316;50.904;4.200;2023-05-07T00:45:38;7.35;;;4.03;;
24157;SDS011;12316;50.904;4.200;2023-05-07T00:48:05;6.60;;;4.10;;
24157;SDS011;12316;50.904;4.200;2023-05-07T00:50:31;8.48;;;3.92;;
24157;SDS011;12316;50.904;4.200;2023-05-07T00:52:58;8.23;;;4.22;;
24157;SDS011;12316;50.904;4.200;2023-05-07T00:55:25;8.43;;;4.20;;
24157;SDS011;12316;50.904;4.200;2023-05-07T00:57:50;7.63;;;3.80;;
24157;SDS011;12316;50.904;4.200;2023-05-07T01:00:17;6.70;;;4.05;;
24157;SDS011;12316;50.904;4.200;2023-05-07T01:02:43;7.10;;;3.83;;
24157;SDS011;12316;50.904;4.200;2023-05-07T01:05:11;7.13;;;4.15;;
24157;SDS011;12316;50.904;4.200;2023-05-07T01:07:39;7.72;;;4.13;;
24157;SDS011;12316;50.904;4.200;2023-05-07T01:10:06;7.82;;;4.03;;
24157;SDS011;12316;50.904;4.200;2023-05-07T01:12:33;10.55;;;4.22;;
24157;SDS011;12316;50.904;4.200;2023-05-07T01:15:00;9.85;;;4.13;;
24157;SDS011;12316;50.904;4.200;2023-05-07T01:17:28;10.85;;;4.30;;
24157;SDS011;12316;50.904;4.200;2023-05-07T01:19:53;14.15;;;4.88;;
24157;SDS011;12316;50.904;4.200;2023-05-07T01:22:29;8.55;;;4.90;;
24157;SDS011;12316;50.904;4.200;2023-05-07T01:27:32;11.73;;;4.95;;
24157;SDS011;12316;50.904;4.200;2023-05-07T01:30:02;8.18;;;4.32;;
24157;SDS011;12316;50.904;4.200;2023-05-07T01:35:00;8.55;;;4.15;;
24157;SDS011;12316;50.904;4.200;2023-05-07T01:37:27;6.68;;;3.80;;
24157;SDS011;12316;50.904;4.200;2023-05-07T01:39:53;10.50;;;4.05;;
24157;SDS011;12316;50.904;4.200;2023-05-07T01:42:20;8.32;;;4.30;;
24157;SDS011;12316;50.904;4.200;2023-05-07T01:44:47;5.63;;;3.70;;
24157;SDS011;12316;50.904;4.200;2023-05-07T01:47:13;9.75;;;4.55;;
24157;SDS011;12316;50.904;4.200;2023-05-07T01:49:39;6.13;;;4.20;;
24157;SDS011;12316;50.904;4.200;2023-05-07T01:52:06;9.35;;;4.18;;
24157;SDS011;12316;50.904;4.200;2023-05-07T01:54:32;6.43;;;4.22;;
24157;SDS011;12316;50.904;4.200;2023-05-07T01:56:59;7.75;;;4.13;;
24157;SDS011;12316;50.904;4.200;2023-05-07T01:59:25;12.00;;;5.07;;
24157;SDS011;12316;50.904;4.200;2023-05-07T02:01:50;9.13;;;4.43;;
24157;SDS011;12316;50.904;4.200;2023-05-07T02:04:17;9.25;;;4.20;;
24157;SDS011;12316;50.904;4.200;2023-05-07T02:06:43;9.75;;;4.88;;
24157;SDS011;12316;50.904;4.200;2023-05-07T02:09:09;8.65;;;4.28;;
24157;SDS011;12316;50.904;4.200;2023-05-07T02:11:36;6.78;;;4.20;;
24157;SDS011;12316;50.904;4.200;2023-05-07T02:14:01;7.30;;;4.20;;
24157;SDS011;12316;50.904;4.200;2023-05-07T02:16:27;8.60;;;4.50;;
24157;SDS011;12316;50.904;4.200;2023-05-07T02:18:52;8.30;;;4.40;;
24157;SDS011;12316;50.904;4.200;2023-05-07T02:21:18;9.43;;;4.30;;
24157;SDS011;12316;50.904;4.200;2023-05-07T02:23:44;7.32;;;4.15;;
24157;SDS011;12316;50.904;4.200;2023-05-07T02:26:10;10.07;;;4.03;;
24157;SDS011;12316;50.904;4.200;2023-05-07T02:28:36;7.47;;;3.92;;
24157;SDS011;12316;50.904;4.200;2023-05-07T02:31:04;6.00;;;3.72;;
24157;SDS011;12316;50.904;4.200;2023-05-07T02:33:30;5.93;;;3.85;;
24157;SDS011;12316;50.904;4.200;2023-05-07T02:35:56;6.90;;;3.97;;
24157;SDS011;12316;50.904;4.200;2023-05-07T02:38:21;10.35;;;4.60;;
24157;SDS011;12316;50.904;4.200;2023-05-07T02:40:48;7.55;;;4.10;;
24157;SDS011;12316;50.904;4.200;2023-05-07T02:43:14;6.85;;;3.70;;
24157;SDS011;12316;50.904;4.200;2023-05-07T02:45:39;5.53;;;3.85;;
24157;SDS011;12316;50.904;4.200;2023-05-07T02:48:05;10.05;;;4.72;;
24157;SDS011;12316;50.904;4.200;2023-05-07T02:50:31;9.18;;;4.60;;
24157;SDS011;12316;50.904;4.200;2023-05-07T02:52:57;9.10;;;4.50;;
24157;SDS011;12316;50.904;4.200;2023-05-07T02:55:23;11.35;;;4.88;;
24157;SDS011;12316;50.904;4.200;2023-05-07T02:57:49;9.43;;;4.68;;
24157;SDS011;12316;50.904;4.200;2023-05-07T03:00:15;8.48;;;4.45;;
24157;SDS011;12316;50.904;4.200;2023-05-07T03:02:44;13.02;;;4.90;;
24157;SDS011;12316;50.904;4.200;2023-05-07T03:05:10;8.48;;;4.80;;
24157;SDS011;12316;50.904;4.200;2023-05-07T03:07:36;8.40;;;3.85;;
24157;SDS011;12316;50.904;4.200;2023-05-07T03:10:02;7.80;;;4.15;;
24157;SDS011;12316;50.904;4.200;2023-05-07T03:12:28;10.38;;;4.70;;
24157;SDS011;12316;50.904;4.200;2023-05-07T03:14:54;6.80;;;4.18;;
24157;SDS011;12316;50.904;4.200;2023-05-07T03:17:20;8.77;;;4.20;;
24157;SDS011;12316;50.904;4.200;2023-05-07T03:19:46;9.40;;;4.32;;
24157;SDS011;12316;50.904;4.200;2023-05-07T03:22:12;6.85;;;4.00;;
24157;SDS011;12316;50.904;4.200;2023-05-07T03:24:37;5.75;;;3.50;;
24157;SDS011;12316;50.904;4.200;2023-05-07T03:27:03;6.95;;;3.53;;
24157;SDS011;12316;50.904;4.200;2023-05-07T03:29:29;6.82;;;3.58;;
24157;SDS011;12316;50.904;4.200;2023-05-07T03:31:54;7.78;;;3.85;;
24157;SDS011;12316;50.904;4.200;2023-05-07T03:34:20;6.03;;;3.55;;
24157;SDS011;12316;50.904;4.200;2023-05-07T03:36:49;6.57;;;3.40;;
24157;SDS011;12316;50.904;4.200;2023-05-07T03:39:14;9.52;;;3.70;;
24157;SDS011;12316;50.904;4.200;2023-05-07T03:41:40;6.28;;;3.75;;
24157;SDS011;12316;50.904;4.200;2023-05-07T03:44:06;6.47;;;3.65;;
24157;SDS011;12316;50.904;4.200;2023-05-07T03:46:32;7.28;;;3.65;;
24157;SDS011;12316;50.904;4.200;2023-05-07T03:48:58;5.70;;;3.35;;
24157;SDS011;12316;50.904;4.200;2023-05-07T03:51:24;6.65;;;4.00;;
24157;SDS011;12316;50.904;4.200;2023-05-07T03:53:50;8.23;;;3.70;;
24157;SDS011;12316;50.904;4.200;2023-05-07T03:56:19;9.00;;;3.67;;
24157;SDS011;12316;50.904;4.200;2023-05-07T03:58:46;8.88;;;4.30;;
24157;SDS011;12316;50.904;4.200;2023-05-07T04:01:12;7.85;;;3.42;;
24157;SDS011;12316;50.904;4.200;2023-05-07T04:03:38;7.97;;;3.35;;
24157;SDS011;12316;50.904;4.200;2023-05-07T04:06:03;7.10;;;3.22;;
24157;SDS011;12316;50.904;4.200;2023-05-07T04:08:29;7.03;;;3.38;;
24157;SDS011;12316;50.904;4.200;2023-05-07T04:10:55;6.07;;;3.70;;
24157;SDS011;12316;50.904;4.200;2023-05-07T04:13:21;10.70;;;3.97;;
24157;SDS011;12316;50.904;4.200;2023-05-07T04:15:47;7.63;;;3.70;;
24157;SDS011;12316;50.904;4.200;2023-05-07T04:18:14;8.55;;;3.90;;
24157;SDS011;12316;50.904;4.200;2023-05-07T04:20:40;8.05;;;4.43;;
24157;SDS011;12316;50.904;4.200;2023-05-07T04:23:06;6.93;;;3.88;;
24157;SDS011;12316;50.904;4.200;2023-05-07T04:25:32;7.10;;;3.80;;
24157;SDS011;12316;50.904;4.200;2023-05-07T04:27:58;4.03;;;2.75;;
24157;SDS011;12316;50.904;4.200;2023-05-07T04:30:24;6.28;;;3.22;;
24157;SDS011;12316;50.904;4.200;2023-05-07T04:32:51;5.38;;;3.17;;
24157;SDS011;12316;50.904;4.200;2023-05-07T04:35:17;9.52;;;3.90;;
24157;SDS011;12316;50.904;4.200;2023-05-07T04:37:42;7.63;;;3.88;;
24157;SDS011;12316;50.904;4.200;2023-05-07T04:40:08;8.60;;;4.07;;
24157;SDS011;12316;50.904;4.200;2023-05-07T04:42:34;12.00;;;4.07;;
24157;SDS011;12316;50.904;4.200;2023-05-07T04:45:01;9.48;;;4.78;;
24157;SDS011;12316;50.904;4.200;2023-05-07T04:47:27;10.65;;;4.25;;
24157;SDS011;12316;50.904;4.200;2023-05-07T04:49:53;6.32;;;3.70;;
24157;SDS011;12316;50.904;4.200;2023-05-07T04:52:18;7.65;;;3.47;;
24157;SDS011;12316;50.904;4.200;2023-05-07T04:54:44;7.15;;;3.42;;
24157;SDS011;12316;50.904;4.200;2023-05-07T04:57:10;6.85;;;3.28;;
24157;SDS011;12316;50.904;4.200;2023-05-07T04:59:35;8.15;;;4.00;;
24157;SDS011;12316;50.904;4.200;2023-05-07T05:02:01;8.70;;;3.50;;
24157;SDS011;12316;50.904;4.200;2023-05-07T05:04:29;9.45;;;3.92;;
24157;SDS011;12316;50.904;4.200;2023-05-07T05:06:54;6.80;;;3.88;;
24157;SDS011;12316;50.904;4.200;2023-05-07T05:09:20;9.20;;;4.05;;
24157;SDS011;12316;50.904;4.200;2023-05-07T05:11:46;8.20;;;3.95;;
24157;SDS011;12316;50.904;4.200;2023-05-07T05:14:11;9.05;;;3.80;;
24157;SDS011;12316;50.904;4.200;2023-05-07T05:16:37;8.05;;;3.88;;
24157;SDS011;12316;50.904;4.200;2023-05-07T05:19:02;10.32;;;3.97;;
24157;SDS011;12316;50.904;4.200;2023-05-07T05:21:28;9.35;;;3.65;;
24157;SDS011;12316;50.904;4.200;2023-05-07T05:23:54;8.20;;;3.70;;
24157;SDS011;12316;50.904;4.200;2023-05-07T05:26:19;6.07;;;3.08;;
24157;SDS011;12316;50.904;4.200;2023-05-07T05:28:46;9.57;;;3.60;;
24157;SDS011;12316;50.904;4.200;2023-05-07T05:31:12;9.30;;;3.67;;
24157;SDS011;12316;50.904;4.200;2023-05-07T05:33:39;6.63;;;3.53;;
24157;SDS011;12316;50.904;4.200;2023-05-07T05:36:05;8.32;;;3.47;;
24157;SDS011;12316;50.904;4.200;2023-05-07T05:38:31;6.72;;;3.00;;
24157;SDS011;12316;50.904;4.200;2023-05-07T05:40:56;6.97;;;3.45;;
24157;SDS011;12316;50.904;4.200;2023-05-07T05:43:23;8.43;;;3.63;;
24157;SDS011;12316;50.904;4.200;2023-05-07T05:45:49;11.70;;;4.03;;
24157;SDS011;12316;50.904;4.200;2023-05-07T05:48:15;10.73;;;3.90;;
24157;SDS011;12316;50.904;4.200;2023-05-07T05:50:41;9.60;;;4.15;;
24157;SDS011;12316;50.904;4.200;2023-05-07T05:53:07;9.50;;;4.03;;
24157;SDS011;12316;50.904;4.200;2023-05-07T05:55:32;9.63;;;4.18;;
24157;SDS011;12316;50.904;4.200;2023-05-07T05:57:59;8.48;;;4.18;;
24157;SDS011;12316;50.904;4.200;2023-05-07T06:00:25;8.63;;;4.07;;
24157;SDS011;12316;50.904;4.200;2023-05-07T06:02:51;9.43;;;4.45;;
24157;SDS011;12316;50.904;4.200;2023-05-07T06:05:17;8.65;;;4.85;;
24157;SDS011;12316;50.904;4.200;2023-05-07T06:07:43;11.32;;;4.93;;
24157;SDS011;12316;50.904;4.200;2023-05-07T06:10:08;10.15;;;5.15;;
24157;SDS011;12316;50.904;4.200;2023-05-07T06:12:34;11.60;;;5.72;;
24157;SDS011;12316;50.904;4.200;2023-05-07T06:15:00;13.13;;;5.68;;
24157;SDS011;12316;50.904;4.200;2023-05-07T06:17:26;12.23;;;6.15;;
24157;SDS011;12316;50.904;4.200;2023-05-07T06:19:52;12.75;;;5.80;;
24157;SDS011;12316;50.904;4.200;2023-05-07T06:22:18;16.27;;;6.70;;
24157;SDS011;12316;50.904;4.200;2023-05-07T06:24:43;14.98;;;7.10;;
24157;SDS011;12316;50.904;4.200;2023-05-07T06:27:10;11.20;;;6.15;;
24157;SDS011;12316;50.904;4.200;2023-05-07T06:29:36;14.25;;;6.80;;
24157;SDS011;12316;50.904;4.200;2023-05-07T06:32:11;12.85;;;6.60;;
24157;SDS011;12316;50.904;4.200;2023-05-07T06:34:38;13.07;;;7.03;;
24157;SDS011;12316;50.904;4.200;2023-05-07T06:37:05;13.02;;;6.47;;
24157;SDS011;12316;50.904;4.200;2023-05-07T06:39:31;10.98;;;5.95;;
24157;SDS011;12316;50.904;4.200;2023-05-07T06:41:57;14.60;;;6.03;;
24157;SDS011;12316;50.904;4.200;2023-05-07T06:44:24;15.25;;;6.28;;
24157;SDS011;12316;50.904;4.200;2023-05-07T06:46:50;12.95;;;6.25;;
24157;SDS011;12316;50.904;4.200;2023-05-07T06:49:15;10.57;;;6.22;;
24157;SDS011;12316;50.904;4.200;2023-05-07T06:51:41;12.68;;;6.40;;
24157;SDS011;12316;50.904;4.200;2023-05-07T06:54:07;13.40;;;6.30;;
24157;SDS011;12316;50.904;4.200;2023-05-07T06:56:32;9.63;;;6.20;;
24157;SDS011;12316;50.904;4.200;2023-05-07T06:58:59;12.25;;;6.32;;
24157;SDS011;12316;50.904;4.200;2023-05-07T07:01:26;11.90;;;6.20;;
24157;SDS011;12316;50.904;4.200;2023-05-07T07:03:51;13.50;;;6.40;;
24157;SDS011;12316;50.904;4.200;2023-05-07T07:06:17;12.25;;;6.07;;
24157;SDS011;12316;50.904;4.200;2023-05-07T07:08:43;12.50;;;6.50;;
24157;SDS011;12316;50.904;4.200;2023-05-07T07:11:09;10.77;;;5.85;;
24157;SDS011;12316;50.904;4.200;2023-05-07T07:13:35;11.93;;;5.90;;
24157;SDS011;12316;50.904;4.200;2023-05-07T07:16:01;13.35;;;5.50;;
24157;SDS011;12316;50.904;4.200;2023-05-07T07:18:26;12.02;;;5.95;;
24157;SDS011;12316;50.904;4.200;2023-05-07T07:20:52;8.98;;;5.22;;
24157;SDS011;12316;50.904;4.200;2023-05-07T07:23:18;9.65;;;4.97;;
24157;SDS011;12316;50.904;4.200;2023-05-07T07:25:44;8.38;;;5.30;;
24157;SDS011;12316;50.904;4.200;2023-05-07T07:28:10;10.13;;;4.65;;
24157;SDS011;12316;50.904;4.200;2023-05-07T07:30:36;9.20;;;4.82;;
24157;SDS011;12316;50.904;4.200;2023-05-07T07:33:02;11.98;;;5.05;;
24157;SDS011;12316;50.904;4.200;2023-05-07T07:35:37;8.25;;;4.88;;
24157;SDS011;12316;50.904;4.200;2023-05-07T07:38:03;8.63;;;4.80;;
24157;SDS011;12316;50.904;4.200;2023-05-07T07:40:28;9.52;;;4.57;;
24157;SDS011;12316;50.904;4.200;2023-05-07T07:42:54;9.32;;;4.50;;
24157;SDS011;12316;50.904;4.200;2023-05-07T07:45:21;8.95;;;5.03;;
24157;SDS011;12316;50.904;4.200;2023-05-07T07:47:47;9.60;;;4.22;;
24157;SDS011;12316;50.904;4.200;2023-05-07T07:50:12;11.30;;;4.70;;
24157;SDS011;12316;50.904;4.200;2023-05-07T07:52:38;7.22;;;4.00;;
24157;SDS011;12316;50.904;4.200;2023-05-07T07:55:04;7.43;;;3.90;;
24157;SDS011;12316;50.904;4.200;2023-05-07T07:57:30;10.10;;;4.15;;
24157;SDS011;12316;50.904;4.200;2023-05-07T07:59:56;7.93;;;4.00;;
24157;SDS011;12316;50.904;4.200;2023-05-07T08:02:21;8.18;;;3.88;;
24157;SDS011;12316;50.904;4.200;2023-05-07T08:04:47;7.05;;;3.55;;
24157;SDS011;12316;50.904;4.200;2023-05-07T08:07:13;7.25;;;3.65;;
24157;SDS011;12316;50.904;4.200;2023-05-07T08:09:39;6.28;;;3.50;;
24157;SDS011;12316;50.904;4.200;2023-05-07T08:12:05;6.63;;;3.80;;
24157;SDS011;12316;50.904;4.200;2023-05-07T08:14:32;5.30;;;3.10;;
24157;SDS011;12316;50.904;4.200;2023-05-07T08:16:58;6.45;;;3.60;;
24157;SDS011;12316;50.904;4.200;2023-05-07T08:19:23;8.63;;;3.60;;
24157;SDS011;12316;50.904;4.200;2023-05-07T08:21:49;7.95;;;3.95;;
24157;SDS011;12316;50.904;4.200;2023-05-07T08:24:15;7.72;;;3.60;;
24157;SDS011;12316;50.904;4.200;2023-05-07T08:26:41;9.10;;;3.83;;
24157;SDS011;12316;50.904;4.200;2023-05-07T08:29:08;6.72;;;3.40;;
24157;SDS011;12316;50.904;4.200;2023-05-07T08:31:33;7.78;;;3.35;;
24157;SDS011;12316;50.904;4.200;2023-05-07T08:33:59;8.43;;;4.05;;
24157;SDS011;12316;50.904;4.200;2023-05-07T08:36:25;9.80;;;3.83;;
24157;SDS011;12316;50.904;4.200;2023-05-07T08:38:51;4.47;;;2.97;;
24157;SDS011;12316;50.904;4.200;2023-05-07T08:41:17;5.80;;;3.38;;
24157;SDS011;12316;50.904;4.200;2023-05-07T08:43:48;6.43;;;3.20;;
24157;SDS011;12316;50.904;4.200;2023-05-07T08:46:18;6.50;;;2.88;;
24157;SDS011;12316;50.904;4.200;2023-05-07T08:48:48;5.53;;;3.30;;
24157;SDS011;12316;50.904;4.200;2023-05-07T08:51:21;6.32;;;3.15;;
24157;SDS011;12316;50.904;4.200;2023-05-07T08:53:48;6.47;;;3.30;;
24157;SDS011;12316;50.904;4.200;2023-05-07T08:56:15;4.78;;;3.20;;
24157;SDS011;12316;50.904;4.200;2023-05-07T08:58:44;5.32;;;3.05;;
24157;SDS011;12316;50.904;4.200;2023-05-07T09:01:13;5.93;;;2.97;;
24157;SDS011;12316;50.904;4.200;2023-05-07T09:03:41;6.88;;;2.92;;
24157;SDS011;12316;50.904;4.200;2023-05-07T09:06:11;4.85;;;2.38;;
24157;SDS011;12316;50.904;4.200;2023-05-07T09:08:37;4.65;;;2.20;;
24157;SDS011;12316;50.904;4.200;2023-05-07T09:11:03;5.05;;;2.30;;
24157;SDS011;12316;50.904;4.200;2023-05-07T09:13:29;4.20;;;2.47;;
24157;SDS011;12316;50.904;4.200;2023-05-07T09:15:55;5.30;;;2.80;;
24157;SDS011;12316;50.904;4.200;2023-05-07T09:18:21;5.93;;;3.00;;
24157;SDS011;12316;50.904;4.200;2023-05-07T09:20:48;5.00;;;2.60;;
24157;SDS011;12316;50.904;4.200;2023-05-07T09:23:14;5.30;;;2.95;;
24157;SDS011;12316;50.904;4.200;2023-05-07T09:25:40;5.18;;;2.90;;
24157;SDS011;12316;50.904;4.200;2023-05-07T09:28:05;6.15;;;2.63;;
24157;SDS011;12316;50.904;4.200;2023-05-07T09:30:32;5.72;;;2.80;;
24157;SDS011;12316;50.904;4.200;2023-05-07T09:32:59;6.97;;;3.40;;
24157;SDS011;12316;50.904;4.200;2023-05-07T09:35:27;5.65;;;2.75;;
24157;SDS011;12316;50.904;4.200;2023-05-07T09:37:53;6.25;;;3.00;;
24157;SDS011;12316;50.904;4.200;2023-05-07T09:40:20;4.53;;;2.63;;
24157;SDS011;12316;50.904;4.200;2023-05-07T09:42:48;4.72;;;2.60;;
24157;SDS011;12316;50.904;4.200;2023-05-07T09:45:14;8.05;;;2.80;;
24157;SDS011;12316;50.904;4.200;2023-05-07T09:50:13;6.93;;;3.00;;
24157;SDS011;12316;50.904;4.200;2023-05-07T09:52:41;5.55;;;3.17;;
24157;SDS011;12316;50.904;4.200;2023-05-07T09:55:08;6.85;;;3.35;;
24157;SDS011;12316;50.904;4.200;2023-05-07T09:57:35;6.93;;;3.30;;
24157;SDS011;12316;50.904;4.200;2023-05-07T10:00:03;6.60;;;3.10;;
24157;SDS011;12316;50.904;4.200;2023-05-07T10:02:30;5.07;;;3.00;;
24157;SDS011;12316;50.904;4.200;2023-05-07T10:04:56;6.28;;;3.20;;
24157;SDS011;12316;50.904;4.200;2023-05-07T10:07:25;7.25;;;3.08;;
24157;SDS011;12316;50.904;4.200;2023-05-07T10:09:51;6.13;;;3.42;;
24157;SDS011;12316;50.904;4.200;2023-05-07T10:12:18;4.85;;;2.75;;
24157;SDS011;12316;50.904;4.200;2023-05-07T10:14:44;6.13;;;3.30;;
24157;SDS011;12316;50.904;4.200;2023-05-07T10:17:11;6.00;;;2.95;;
24157;SDS011;12316;50.904;4.200;2023-05-07T10:19:38;4.40;;;2.67;;
24157;SDS011;12316;50.904;4.200;2023-05-07T10:22:05;5.97;;;3.20;;
24157;SDS011;12316;50.904;4.200;2023-05-07T10:24:33;4.97;;;2.78;;
24157;SDS011;12316;50.904;4.200;2023-05-07T10:27:01;7.38;;;3.78;;
24157;SDS011;12316;50.904;4.200;2023-05-07T10:29:33;5.63;;;3.42;;
24157;SDS011;12316;50.904;4.200;2023-05-07T10:35:03;4.65;;;3.05;;
24157;SDS011;12316;50.904;4.200;2023-05-07T10:37:34;5.80;;;3.27;;
24157;SDS011;12316;50.904;4.200;2023-05-07T10:40:00;5.35;;;3.13;;
24157;SDS011;12316;50.904;4.200;2023-05-07T10:42:26;4.65;;;2.92;;
24157;SDS011;12316;50.904;4.200;2023-05-07T10:44:52;4.65;;;3.17;;
24157;SDS011;12316;50.904;4.200;2023-05-07T10:47:17;7.07;;;3.10;;
24157;SDS011;12316;50.904;4.200;2023-05-07T10:54:41;3.78;;;2.20;;
24157;SDS011;12316;50.904;4.200;2023-05-07T11:05:26;4.43;;;2.30;;
24157;SDS011;12316;50.904;4.200;2023-05-07T11:07:59;3.55;;;2.00;;
24157;SDS011;12316;50.904;4.200;2023-05-07T11:13:12;4.82;;;2.17;;
24157;SDS011;12316;50.904;4.200;2023-05-07T11:15:39;4.45;;;2.08;;
24157;SDS011;12316;50.904;4.200;2023-05-07T11:18:08;6.13;;;2.20;;
24157;SDS011;12316;50.904;4.200;2023-05-07T11:26:03;4.05;;;2.42;;
24157;SDS011;12316;50.904;4.200;2023-05-07T11:28:42;2.35;;;1.90;;
24157;SDS011;12316;50.904;4.200;2023-05-07T11:31:09;3.50;;;2.00;;
24157;SDS011;12316;50.904;4.200;2023-05-07T11:33:35;3.53;;;2.08;;
24157;SDS011;12316;50.904;4.200;2023-05-07T11:36:03;4.28;;;2.40;;
24157;SDS011;12316;50.904;4.200;2023-05-07T11:38:30;4.05;;;2.80;;
24157;SDS011;12316;50.904;4.200;2023-05-07T11:41:00;3.85;;;2.58;;
24157;SDS011;12316;50.904;4.200;2023-05-07T11:43:27;3.40;;;2.20;;
24157;SDS011;12316;50.904;4.200;2023-05-07T11:45:53;4.25;;;2.60;;
24157;SDS011;12316;50.904;4.200;2023-05-07T11:48:19;4.30;;;2.60;;
24157;SDS011;12316;50.904;4.200;2023-05-07T11:51:20;4.55;;;2.80;;
24157;SDS011;12316;50.904;4.200;2023-05-07T11:53:43;4.75;;;2.65;;
24157;SDS011;12316;50.904;4.200;2023-05-07T11:56:13;5.43;;;2.30;;
24157;SDS011;12316;50.904;4.200;2023-05-07T11:58:40;4.07;;;2.25;;
24157;SDS011;12316;50.904;4.200;2023-05-07T12:01:08;3.92;;;2.42;;
24157;SDS011;12316;50.904;4.200;2023-05-07T12:03:39;3.55;;;2.20;;
24157;SDS011;12316;50.904;4.200;2023-05-07T12:06:13;4.63;;;2.20;;
24157;SDS011;12316;50.904;4.200;2023-05-07T12:08:42;4.25;;;2.30;;
24157;SDS011;12316;50.904;4.200;2023-05-07T12:11:09;3.95;;;2.20;;
24157;SDS011;12316;50.904;4.200;2023-05-07T12:13:38;2.72;;;1.90;;
24157;SDS011;12316;50.904;4.200;2023-05-07T12:16:05;3.92;;;2.50;;
24157;SDS011;12316;50.904;4.200;2023-05-07T12:18:31;3.63;;;2.58;;
24157;SDS011;12316;50.904;4.200;2023-05-07T12:20:57;3.83;;;2.13;;
24157;SDS011;12316;50.904;4.200;2023-05-07T12:23:24;4.28;;;2.72;;
24157;SDS011;12316;50.904;4.200;2023-05-07T12:25:50;3.72;;;3.33;;
24157;SDS011;12316;50.904;4.200;2023-05-07T12:28:18;3.50;;;3.08;;
24157;SDS011;12316;50.904;4.200;2023-05-07T12:30:45;3.50;;;3.05;;
24157;SDS011;12316;50.904;4.200;2023-05-07T12:33:12;3.40;;;3.10;;
24157;SDS011;12316;50.904;4.200;2023-05-07T12:35:41;4.97;;;3.13;;
24157;SDS011;12316;50.904;4.200;2023-05-07T12:38:09;4.03;;;3.65;;
24157;SDS011;12316;50.904;4.200;2023-05-07T12:40:40;4.53;;;4.00;;
24157;SDS011;12316;50.904;4.200;2023-05-07T12:43:08;4.80;;;4.10;;
24157;SDS011;12316;50.904;4.200;2023-05-07T12:45:41;6.78;;;5.70;;
24157;SDS011;12316;50.904;4.200;2023-05-07T12:48:09;6.60;;;5.65;;
24157;SDS011;12316;50.904;4.200;2023-05-07T12:50:35;6.28;;;5.68;;
24157;SDS011;12316;50.904;4.200;2023-05-07T12:53:03;7.93;;;5.82;;
24157;SDS011;12316;50.904;4.200;2023-05-07T12:55:43;6.20;;;5.47;;
24157;SDS011;12316;50.904;4.200;2023-05-07T12:58:20;6.68;;;5.85;;
24157;SDS011;12316;50.904;4.200;2023-05-07T13:00:54;5.80;;;5.30;;
24157;SDS011;12316;50.904;4.200;2023-05-07T13:05:49;6.45;;;5.85;;
24157;SDS011;12316;50.904;4.200;2023-05-07T13:08:26;5.70;;;5.20;;
24157;SDS011;12316;50.904;4.200;2023-05-07T13:11:00;7.00;;;6.20;;
24157;SDS011;12316;50.904;4.200;2023-05-07T13:13:33;6.72;;;6.13;;
24157;SDS011;12316;50.904;4.200;2023-05-07T13:16:00;6.47;;;5.75;;
24157;SDS011;12316;50.904;4.200;2023-05-07T13:18:26;6.57;;;5.95;;
24157;SDS011;12316;50.904;4.200;2023-05-07T13:20:54;5.65;;;5.15;;
24157;SDS011;12316;50.904;4.200;2023-05-07T13:23:19;7.10;;;6.40;;
24157;SDS011;12316;50.904;4.200;2023-05-07T13:25:45;6.05;;;5.53;;
24157;SDS011;12316;50.904;4.200;2023-05-07T13:28:11;7.63;;;6.32;;
24157;SDS011;12316;50.904;4.200;2023-05-07T13:30:37;7.03;;;6.30;;
24157;SDS011;12316;50.904;4.200;2023-05-07T13:33:03;6.68;;;5.28;;
24157;SDS011;12316;50.904;4.200;2023-05-07T13:35:28;6.03;;;5.40;;
24157;SDS011;12316;50.904;4.200;2023-05-07T13:37:54;6.78;;;5.93;;
24157;SDS011;12316;50.904;4.200;2023-05-07T13:40:21;10.75;;;7.40;;
24157;SDS011;12316;50.904;4.200;2023-05-07T13:42:47;8.52;;;6.75;;
24157;SDS011;12316;50.904;4.200;2023-05-07T13:45:13;7.20;;;6.50;;
24157;SDS011;12316;50.904;4.200;2023-05-07T13:47:42;8.02;;;6.68;;
24157;SDS011;12316;50.904;4.200;2023-05-07T13:50:10;8.90;;;7.60;;
24157;SDS011;12316;50.904;4.200;2023-05-07T13:52:38;7.10;;;6.40;;
24157;SDS011;12316;50.904;4.200;2023-05-07T13:55:06;8.73;;;7.82;;
24157;SDS011;12316;50.904;4.200;2023-05-07T13:57:32;7.82;;;7.13;;
24157;SDS011;12316;50.904;4.200;2023-05-07T13:59:57;7.63;;;6.82;;
24157;SDS011;12316;50.904;4.200;2023-05-07T14:02:23;8.63;;;7.82;;
24157;SDS011;12316;50.904;4.200;2023-05-07T14:04:49;7.90;;;7.10;;
24157;SDS011;12316;50.904;4.200;2023-05-07T14:07:14;8.40;;;7.65;;
24157;SDS011;12316;50.904;4.200;2023-05-07T14:09:40;9.55;;;8.55;;
24157;SDS011;12316;50.904;4.200;2023-05-07T14:12:07;10.07;;;8.95;;
24157;SDS011;12316;50.904;4.200;2023-05-07T14:14:32;10.70;;;9.68;;
24157;SDS011;12316;50.904;4.200;2023-05-07T14:16:58;10.10;;;8.65;;
24157;SDS011;12316;50.904;4.200;2023-05-07T14:19:25;9.30;;;8.45;;
24157;SDS011;12316;50.904;4.200;2023-05-07T14:21:50;10.00;;;8.20;;
24157;SDS011;12316;50.904;4.200;2023-05-07T14:24:16;7.10;;;6.40;;
24157;SDS011;12316;50.904;4.200;2023-05-07T14:26:41;5.25;;;4.50;;
24157;SDS011;12316;50.904;4.200;2023-05-07T14:29:07;5.25;;;4.63;;
24157;SDS011;12316;50.904;4.200;2023-05-07T14:31:33;5.75;;;4.30;;
24157;SDS011;12316;50.904;4.200;2023-05-07T14:33:58;5.78;;;4.00;;
24157;SDS011;12316;50.904;4.200;2023-05-07T14:36:25;4.47;;;3.40;;
24157;SDS011;12316;50.904;4.200;2023-05-07T14:38:55;5.85;;;3.60;;
24157;SDS011;12316;50.904;4.200;2023-05-07T14:41:24;4.38;;;2.97;;
24157;SDS011;12316;50.904;4.200;2023-05-07T14:43:49;4.40;;;3.25;;
24157;SDS011;12316;50.904;4.200;2023-05-07T14:46:16;3.92;;;3.25;;
24157;SDS011;12316;50.904;4.200;2023-05-07T14:48:43;3.70;;;3.10;;
24157;SDS011;12316;50.904;4.200;2023-05-07T14:51:12;4.53;;;3.40;;
24157;SDS011;12316;50.904;4.200;2023-05-07T14:53:38;3.88;;;3.10;;
24157;SDS011;12316;50.904;4.200;2023-05-07T14:56:05;4.18;;;2.45;;
24157;SDS011;12316;50.904;4.200;2023-05-07T14:58:31;3.97;;;2.40;;
24157;SDS011;12316;50.904;4.200;2023-05-07T15:00:57;2.92;;;2.45;;
24157;SDS011;12316;50.904;4.200;2023-05-07T15:03:23;3.63;;;2.60;;
24157;SDS011;12316;50.904;4.200;2023-05-07T15:05:50;3.58;;;2.72;;
24157;SDS011;12316;50.904;4.200;2023-05-07T15:08:16;4.22;;;3.03;;
24157;SDS011;12316;50.904;4.200;2023-05-07T15:10:42;5.13;;;2.85;;
24157;SDS011;12316;50.904;4.200;2023-05-07T15:13:11;4.93;;;3.05;;
24157;SDS011;12316;50.904;4.200;2023-05-07T15:15:41;4.47;;;2.88;;
24157;SDS011;12316;50.904;4.200;2023-05-07T15:18:08;6.97;;;4.22;;